createdAt,value
2022-12-31T00:02:18.202Z,88.92
2022-12-31T00:05:20.673Z,88.89
2022-12-31T00:08:23.304Z,89.13
2022-12-31T00:11:28.429Z,88.86
2022-12-31T00:14:36.029Z,89.11
2022-12-31T00:17:38.379Z,89.68
2022-12-31T00:20:42.190Z,90.47
2022-12-31T00:23:45.044Z,90.55
2022-12-31T00:26:48.032Z,90.86
2022-12-31T00:29:50.461Z,90.25
2022-12-31T00:32:53.243Z,91.09
2022-12-31T00:35:55.761Z,90.50
2022-12-31T00:39:00.348Z,90.18
2022-12-31T00:42:02.777Z,89.73
2022-12-31T00:45:05.042Z,90.01
2022-12-31T00:48:09.839Z,89.69
2022-12-31T00:51:15.296Z,89.15
2022-12-31T00:54:18.131Z,89.23
2022-12-31T00:57:20.810Z,89.69
2022-12-31T01:00:23.188Z,89.50
2022-12-31T01:03:26.065Z,89.05
2022-12-31T01:06:28.735Z,89.24
2022-12-31T01:09:31.153Z,88.33
2022-12-31T01:12:33.338Z,88.65
2022-12-31T01:15:37.215Z,89.34
2022-12-31T01:18:39.696Z,89.81
2022-12-31T01:21:43.994Z,89.25
2022-12-31T01:24:46.257Z,90.79
2022-12-31T01:27:48.821Z,89.26
2022-12-31T01:30:51.116Z,89.29
2022-12-31T01:33:53.436Z,89.23
2022-12-31T01:36:58.137Z,88.53
2022-12-31T01:40:00.500Z,88.99
2022-12-31T01:43:03.374Z,90.15
2022-12-31T01:46:06.078Z,90.15
2022-12-31T01:49:31.237Z,90.30
2022-12-31T01:52:41.460Z,90.20
2022-12-31T01:55:56.906Z,90.93
2022-12-31T01:59:00.093Z,90.59
2022-12-31T02:02:03.013Z,90.70
2022-12-31T02:05:14.317Z,91.32
2022-12-31T02:08:16.430Z,91.02
2022-12-31T02:11:28.308Z,89.96
2022-12-31T02:14:33.979Z,89.35
2022-12-31T02:17:53.432Z,88.62
2022-12-31T02:21:11.145Z,88.96
2022-12-31T02:24:50.503Z,88.03
2022-12-31T02:28:30.260Z,89.67
2022-12-31T02:31:43.444Z,90.01
2022-12-31T02:34:51.854Z,89.18
2022-12-31T02:37:59.149Z,87.97
2022-12-31T02:41:02.407Z,88.55
2022-12-31T02:44:29.522Z,89.61
2022-12-31T02:47:47.238Z,89.49
2022-12-31T02:51:00.544Z,88.21
2022-12-31T02:54:17.984Z,87.63
2022-12-31T02:57:52.400Z,87.21
2022-12-31T03:01:17.095Z,87.36
2022-12-31T03:04:33.755Z,88.53
2022-12-31T03:07:35.767Z,88.63
2022-12-31T03:10:38.104Z,89.41
2022-12-31T03:13:40.430Z,90.04
2022-12-31T03:16:42.761Z,89.35
2022-12-31T03:20:03.301Z,88.79
2022-12-31T03:23:08.715Z,88.47
2022-12-31T03:26:12.526Z,88.47
2022-12-31T03:29:14.951Z,88.41
2022-12-31T03:32:17.083Z,88.62
2022-12-31T03:35:21.239Z,88.01
2022-12-31T03:38:23.460Z,88.29
2022-12-31T03:41:25.416Z,88.57
2022-12-31T03:44:27.482Z,88.92
2022-12-31T03:47:29.842Z,88.10
2022-12-31T03:50:32.652Z,88.07
2022-12-31T03:53:35.791Z,88.24
2022-12-31T03:56:38.198Z,87.65
2022-12-31T03:59:40.308Z,87.37
2022-12-31T04:02:42.573Z,87.84
2022-12-31T04:05:44.663Z,88.40
2022-12-31T04:08:46.603Z,88.15
2022-12-31T04:11:48.724Z,88.63
2022-12-31T04:14:51.422Z,88.55
2022-12-31T04:17:53.667Z,89.87
2022-12-31T04:21:01.986Z,89.75
2022-12-31T04:24:04.423Z,88.87
2022-12-31T04:27:08.287Z,87.88
2022-12-31T04:30:12.463Z,87.32
2022-12-31T04:33:14.747Z,88.10
2022-12-31T04:36:17.030Z,88.83
2022-12-31T04:39:19.232Z,89.17
2022-12-31T04:42:21.352Z,88.69
2022-12-31T04:45:23.516Z,89.03
2022-12-31T04:48:25.456Z,89.01
2022-12-31T04:51:28.761Z,88.30
2022-12-31T04:54:30.777Z,88.88
2022-12-31T04:57:33.040Z,89.70
2022-12-31T05:00:35.386Z,89.14
2022-12-31T05:03:43.692Z,90.15
2022-12-31T05:06:45.827Z,90.25
2022-12-31T05:09:47.898Z,90.26
2022-12-31T05:12:50.605Z,89.04
2022-12-31T05:15:53.041Z,88.30
2022-12-31T05:18:55.189Z,89.60
2022-12-31T05:22:16.002Z,88.89
2022-12-31T05:25:18.203Z,89.56
2022-12-31T05:28:20.676Z,89.22
2022-12-31T05:31:22.975Z,89.83
2022-12-31T05:34:25.089Z,90.17
2022-12-31T05:37:29.904Z,89.38
2022-12-31T05:40:32.199Z,89.95
2022-12-31T05:43:35.015Z,88.93
2022-12-31T05:46:37.072Z,89.83
2022-12-31T05:49:39.743Z,90.44
2022-12-31T05:52:47.446Z,91.00
2022-12-31T05:55:50.911Z,91.04
2022-12-31T05:58:54.690Z,90.15
2022-12-31T06:01:57.818Z,90.29
2022-12-31T06:04:59.919Z,90.01
2022-12-31T06:08:02.176Z,88.36
2022-12-31T06:11:04.343Z,88.54
2022-12-31T06:14:06.884Z,88.36
2022-12-31T06:17:09.151Z,89.04
2022-12-31T06:20:13.237Z,89.04
2022-12-31T06:23:15.502Z,89.12
2022-12-31T06:26:18.202Z,88.18
2022-12-31T06:29:20.828Z,88.83
2022-12-31T06:32:23.307Z,88.51
2022-12-31T06:35:25.448Z,88.27
2022-12-31T06:38:29.953Z,87.92
2022-12-31T06:41:32.420Z,87.26
2022-12-31T06:44:34.774Z,88.04
2022-12-31T06:47:37.036Z,88.68
2022-12-31T06:50:40.720Z,89.09
2022-12-31T06:53:43.104Z,89.47
2022-12-31T06:56:45.655Z,89.53
2022-12-31T06:59:48.103Z,89.39
2022-12-31T07:03:16.326Z,89.71
2022-12-31T07:06:46.236Z,89.69
2022-12-31T07:10:09.580Z,89.64
2022-12-31T07:13:26.876Z,88.01
2022-12-31T07:16:40.486Z,87.71
2022-12-31T07:19:58.540Z,87.91
2022-12-31T07:23:00.874Z,89.47
2022-12-31T07:26:18.866Z,89.15
2022-12-31T07:29:52.867Z,90.29
2022-12-31T07:32:58.065Z,89.14
2022-12-31T07:36:50.985Z,88.14
2022-12-31T07:40:20.890Z,88.47
2022-12-31T07:43:40.956Z,89.08
2022-12-31T07:46:56.882Z,89.54
2022-12-31T07:49:59.675Z,89.67
2022-12-31T07:53:02.246Z,87.91
2022-12-31T07:56:07.644Z,89.22
2022-12-31T07:59:28.730Z,88.27
2022-12-31T08:02:42.925Z,88.73
2022-12-31T08:06:10.216Z,87.46
2022-12-31T08:09:44.612Z,86.37
2022-12-31T08:12:50.455Z,86.81
2022-12-31T08:15:53.023Z,86.71
2022-12-31T08:18:55.574Z,88.04
2022-12-31T08:22:14.408Z,87.19
2022-12-31T08:25:46.006Z,84.84
2022-12-31T08:29:11.484Z,84.58
2022-12-31T08:32:31.331Z,83.39
2022-12-31T08:35:51.542Z,83.65
2022-12-31T08:39:28.702Z,83.31
2022-12-31T08:42:50.481Z,83.27
2022-12-31T08:45:54.515Z,81.86
2022-12-31T08:48:58.549Z,81.35
2022-12-31T08:52:02.600Z,81.22
2022-12-31T08:55:05.843Z,81.17
2022-12-31T08:58:29.830Z,81.13
2022-12-31T09:01:44.105Z,82.33
2022-12-31T09:05:12.966Z,82.05
2022-12-31T09:08:24.343Z,81.09
2022-12-31T09:11:46.637Z,80.58
2022-12-31T09:14:59.651Z,80.54
2022-12-31T09:18:02.723Z,80.38
2022-12-31T09:21:05.245Z,79.54
2022-12-31T09:24:10.514Z,80.73
2022-12-31T09:27:39.310Z,80.14
2022-12-31T09:31:22.711Z,80.01
2022-12-31T09:35:07.708Z,81.52
2022-12-31T09:38:17.837Z,81.00
2022-12-31T09:41:57.247Z,81.91
2022-12-31T09:45:41.540Z,80.94
2022-12-31T09:48:57.014Z,81.00
2022-12-31T09:52:11.652Z,80.98
2022-12-31T09:55:43.178Z,81.03
2022-12-31T09:58:51.298Z,80.28
2022-12-31T10:02:03.711Z,80.09
2022-12-31T10:05:24.666Z,80.35
2022-12-31T10:08:54.944Z,81.24
2022-12-31T10:12:19.392Z,80.74
2022-12-31T10:15:35.889Z,80.48
2022-12-31T10:18:56.048Z,81.20
2022-12-31T10:22:22.247Z,81.11
2022-12-31T10:25:38.587Z,82.07
2022-12-31T10:29:14.801Z,81.36
2022-12-31T10:32:18.958Z,82.39
2022-12-31T10:35:28.888Z,80.97
2022-12-31T10:38:31.419Z,80.57
2022-12-31T10:41:54.809Z,82.79
2022-12-31T10:44:56.816Z,82.11
2022-12-31T10:48:24.038Z,82.78
2022-12-31T10:52:00.751Z,81.56
2022-12-31T10:55:24.451Z,82.42
2022-12-31T10:58:49.024Z,81.45
2022-12-31T11:01:57.722Z,82.70
2022-12-31T11:05:29.013Z,81.53
2022-12-31T11:08:53.065Z,82.32
2022-12-31T11:12:32.813Z,81.10
2022-12-31T11:16:03.060Z,82.70
2022-12-31T11:19:26.392Z,82.71
2022-12-31T11:22:52.183Z,82.25
2022-12-31T11:26:16.241Z,82.81
2022-12-31T11:29:41.951Z,82.16
2022-12-31T11:33:06.334Z,81.75
2022-12-31T11:36:40.216Z,81.27
2022-12-31T11:40:10.157Z,81.72
2022-12-31T11:43:44.108Z,81.39
2022-12-31T11:46:58.280Z,81.16
2022-12-31T11:50:26.149Z,82.31
2022-12-31T11:53:43.541Z,81.70
2022-12-31T11:56:53.789Z,81.82
2022-12-31T12:00:06.472Z,82.77
2022-12-31T12:03:12.756Z,82.25
2022-12-31T12:06:18.815Z,82.39
2022-12-31T12:09:28.660Z,82.12
2022-12-31T12:12:41.730Z,82.50
2022-12-31T12:15:48.352Z,81.69
2022-12-31T12:19:03.910Z,81.80
2022-12-31T12:22:20.944Z,82.30
2022-12-31T12:25:27.360Z,82.78
2022-12-31T12:28:44.328Z,82.06
2022-12-31T12:32:05.101Z,83.16
2022-12-31T12:35:16.127Z,82.38
2022-12-31T12:38:24.163Z,81.96
2022-12-31T12:41:27.827Z,82.69
2022-12-31T12:44:30.812Z,82.99
2022-12-31T12:47:34.469Z,82.49
2022-12-31T12:50:45.299Z,81.47
2022-12-31T12:54:19.923Z,81.81
2022-12-31T12:57:34.361Z,81.94
2022-12-31T13:00:58.989Z,81.93
2022-12-31T13:04:34.375Z,81.11
2022-12-31T13:07:50.354Z,80.71
2022-12-31T13:10:58.749Z,79.78
2022-12-31T13:14:04.164Z,81.74
2022-12-31T13:17:28.001Z,81.18
2022-12-31T13:21:24.454Z,80.29
2022-12-31T13:24:45.000Z,80.31
2022-12-31T13:27:50.498Z,80.89
2022-12-31T13:31:06.985Z,80.52
2022-12-31T13:34:30.252Z,80.25
2022-12-31T13:37:39.778Z,79.71
2022-12-31T13:40:57.294Z,80.61
2022-12-31T13:44:18.174Z,80.91
2022-12-31T13:47:37.423Z,80.91
2022-12-31T13:50:53.186Z,81.71
2022-12-31T13:54:03.783Z,82.39
2022-12-31T13:57:33.939Z,82.56
2022-12-31T14:01:12.033Z,82.37
2022-12-31T14:04:35.822Z,82.68
2022-12-31T14:07:50.609Z,82.40
2022-12-31T14:11:20.883Z,82.07
2022-12-31T14:14:32.024Z,81.81
2022-12-31T14:17:46.141Z,82.16
2022-12-31T14:20:48.410Z,81.46
2022-12-31T14:24:07.134Z,80.89
2022-12-31T14:27:18.030Z,81.29
2022-12-31T14:30:23.263Z,82.22
2022-12-31T14:33:37.474Z,81.65
2022-12-31T14:37:16.580Z,81.25
2022-12-31T14:40:18.793Z,81.37
2022-12-31T14:43:39.793Z,81.62
2022-12-31T14:47:23.323Z,81.43
2022-12-31T14:50:28.245Z,81.92
2022-12-31T14:53:33.665Z,82.64
2022-12-31T14:56:46.825Z,81.84
2022-12-31T14:59:58.104Z,82.56
2022-12-31T15:03:05.464Z,82.99
2022-12-31T15:06:23.319Z,83.04
2022-12-31T15:09:53.657Z,83.82
2022-12-31T15:13:06.711Z,83.50
2022-12-31T15:16:27.006Z,83.66
2022-12-31T15:20:00.496Z,83.77
2022-12-31T15:23:02.805Z,83.82
2022-12-31T15:26:06.386Z,84.12
2022-12-31T15:29:24.500Z,84.81
2022-12-31T15:32:39.037Z,84.01
2022-12-31T15:36:23.555Z,84.09
2022-12-31T15:39:45.993Z,85.41
2022-12-31T15:42:55.207Z,84.79
2022-12-31T15:45:58.236Z,84.17
2022-12-31T15:49:15.428Z,82.94
2022-12-31T15:52:26.625Z,83.36
2022-12-31T15:55:46.533Z,82.99
2022-12-31T15:58:58.043Z,82.52
2022-12-31T16:02:00.357Z,83.31
2022-12-31T16:05:04.296Z,83.68
2022-12-31T16:08:06.813Z,83.02
2022-12-31T16:11:10.149Z,82.87
2022-12-31T16:14:26.006Z,82.61
2022-12-31T16:17:39.860Z,82.76
2022-12-31T16:20:44.944Z,84.10
2022-12-31T16:23:52.423Z,83.54
2022-12-31T16:26:59.259Z,83.61
2022-12-31T16:30:05.504Z,83.94
2022-12-31T16:33:15.254Z,84.53
2022-12-31T16:36:23.992Z,85.48
2022-12-31T16:39:34.913Z,86.00
2022-12-31T16:42:44.306Z,85.73
2022-12-31T16:45:47.125Z,86.08
2022-12-31T16:49:04.194Z,86.14
2022-12-31T16:52:16.887Z,85.91
2022-12-31T16:55:27.056Z,85.91
2022-12-31T16:58:40.365Z,85.10
2022-12-31T17:01:42.877Z,85.78
2022-12-31T17:04:55.569Z,85.52
2022-12-31T17:07:58.857Z,85.63
2022-12-31T17:11:03.702Z,85.58
2022-12-31T17:14:08.008Z,85.46
2022-12-31T17:17:25.194Z,85.54
2022-12-31T17:20:31.286Z,85.54
2022-12-31T17:23:35.892Z,86.77
2022-12-31T17:26:39.038Z,85.13
2022-12-31T17:29:41.287Z,84.50
2022-12-31T17:32:45.604Z,86.10
2022-12-31T17:35:49.400Z,86.79
2022-12-31T17:38:51.649Z,86.11
2022-12-31T17:41:58.110Z,85.57
2022-12-31T17:45:15.893Z,86.04
2022-12-31T17:48:19.888Z,85.31
2022-12-31T17:51:24.336Z,85.40
2022-12-31T17:54:27.014Z,85.50
2022-12-31T17:57:31.186Z,85.85
2022-12-31T18:00:37.237Z,85.56
2022-12-31T18:03:39.567Z,85.06
2022-12-31T18:06:42.328Z,84.97
2022-12-31T18:09:44.793Z,85.70
2022-12-31T18:12:50.665Z,85.61
2022-12-31T18:15:56.217Z,85.93
2022-12-31T18:19:00.689Z,85.97
2022-12-31T18:22:04.193Z,85.99
2022-12-31T18:25:08.055Z,86.79
2022-12-31T18:28:11.944Z,85.91
2022-12-31T18:31:22.247Z,85.82
2022-12-31T18:34:24.422Z,86.51
2022-12-31T18:37:29.246Z,87.06
2022-12-31T18:40:33.195Z,86.64
2022-12-31T18:43:35.833Z,86.10
2022-12-31T18:46:37.872Z,86.62
2022-12-31T18:49:40.726Z,86.90
2022-12-31T18:52:43.861Z,86.00
2022-12-31T18:55:52.652Z,86.14
2022-12-31T18:58:55.068Z,85.93
2022-12-31T19:01:57.560Z,85.46
2022-12-31T19:05:00.195Z,85.27
2022-12-31T19:08:02.343Z,84.96
2022-12-31T19:11:04.733Z,85.16
2022-12-31T19:14:16.312Z,85.41
2022-12-31T19:17:18.781Z,85.27
2022-12-31T19:20:21.190Z,86.36
2022-12-31T19:23:23.252Z,85.97
2022-12-31T19:26:25.536Z,85.60
2022-12-31T19:29:29.499Z,85.69
2022-12-31T19:32:31.551Z,87.33
2022-12-31T19:35:34.250Z,87.68
2022-12-31T19:38:36.576Z,86.97
2022-12-31T19:41:42.512Z,87.30
2022-12-31T19:44:44.782Z,88.34
2022-12-31T19:47:47.536Z,90.38
2022-12-31T19:50:52.505Z,88.14
2022-12-31T19:53:54.843Z,88.37
2022-12-31T19:56:57.183Z,89.58
2022-12-31T19:59:59.650Z,90.90
2022-12-31T20:03:02.410Z,88.81
2022-12-31T20:06:09.176Z,87.99
2022-12-31T20:09:12.143Z,87.39
2022-12-31T20:12:15.009Z,87.68
2022-12-31T20:15:17.299Z,86.39
2022-12-31T20:18:21.779Z,86.71
2022-12-31T20:21:27.993Z,86.32
2022-12-31T20:24:30.694Z,86.87
2022-12-31T20:27:33.662Z,87.55
2022-12-31T20:30:38.937Z,88.14
2022-12-31T20:33:42.285Z,87.66
2022-12-31T20:36:44.627Z,88.27
2022-12-31T20:39:47.099Z,88.13
2022-12-31T20:42:49.535Z,87.03
2022-12-31T20:45:51.741Z,87.88
2022-12-31T20:48:57.234Z,87.70
2022-12-31T20:51:59.385Z,88.00
2022-12-31T20:55:01.717Z,88.23
2022-12-31T20:58:05.141Z,87.49
2022-12-31T21:01:09.115Z,87.31
2022-12-31T21:04:11.473Z,88.02
2022-12-31T21:07:13.940Z,87.44
2022-12-31T21:10:17.126Z,87.39
2022-12-31T21:13:23.121Z,87.56
2022-12-31T21:16:26.256Z,88.45
2022-12-31T21:19:28.463Z,87.83
2022-12-31T21:22:30.625Z,88.42
2022-12-31T21:25:33.817Z,88.62
2022-12-31T21:28:36.542Z,88.56
2022-12-31T21:31:38.959Z,87.84
2022-12-31T21:34:42.452Z,87.86
2022-12-31T21:37:57.891Z,88.80
2022-12-31T21:41:03.595Z,89.29
2022-12-31T21:44:06.040Z,89.17
2022-12-31T21:47:35.652Z,88.77
2022-12-31T21:50:39.469Z,89.91
2022-12-31T21:53:41.564Z,88.81
2022-12-31T21:56:43.417Z,89.29
2022-12-31T22:00:39.856Z,90.68
2022-12-31T22:03:27.961Z,90.80
2022-12-31T22:06:30.573Z,91.40
2022-12-31T22:09:32.980Z,91.04
2022-12-31T22:12:35.352Z,91.58
2022-12-31T22:15:47.873Z,91.68
2022-12-31T22:18:50.706Z,90.96
2022-12-31T22:21:52.970Z,89.78
2022-12-31T22:24:54.909Z,89.10
2022-12-31T22:28:28.032Z,88.82
2022-12-31T22:31:22.252Z,89.74
2022-12-31T22:34:24.582Z,89.48
2022-12-31T22:40:48.469Z,89.08
2022-12-31T22:44:02.301Z,89.17
2022-12-31T22:47:05.562Z,89.92
2022-12-31T22:50:08.120Z,90.30
2022-12-31T22:53:10.354Z,91.22
2022-12-31T22:56:14.785Z,90.92
2022-12-31T22:59:17.004Z,90.46
2022-12-31T23:02:19.184Z,90.17
2022-12-31T23:05:24.084Z,89.17
2022-12-31T23:08:26.549Z,89.17
2022-12-31T23:11:29.856Z,89.40
2022-12-31T23:14:50.838Z,89.51
2022-12-31T23:18:11.606Z,89.02
2022-12-31T23:21:32.913Z,89.25
2022-12-31T23:24:36.354Z,89.17
2022-12-31T23:27:38.841Z,88.82
2022-12-31T23:30:42.837Z,88.63
2022-12-31T23:33:44.859Z,88.75
2022-12-31T23:36:47.150Z,88.89
2022-12-31T23:39:49.298Z,89.37
2022-12-31T23:42:51.562Z,90.55
2022-12-31T23:45:53.937Z,90.81
2022-12-31T23:48:56.062Z,90.67
2022-12-31T23:51:58.308Z,89.96
2022-12-31T23:55:00.450Z,89.12
2022-12-31T23:58:02.527Z,89.48
